• Join FlightAware (Why Join?)
  • Login
  • US Flag 
06:17AM EST


 

Airport Tracker/Info


-or-


 

Live Flight TrackerFlight Track Log ✈ FEX11 ✈ 09-May-2013 ✈ CYKZ - KBED

Flight Track Log - Related Links

Times and Time Zones

All times are in EDT time to prevent confusion due to time zone crossing. See the FEX11 flight status page for this flight to view local times or setup timezone preferences in your user account.

Time Position Orientation Groundspeed Altitude Reporting Facility
EDT Latitude Longitude Course Direction KTS MPH feet Rate Location/Type
08:47AM 43.8667 -79.3500 147° Southeast 140 161 1,300  Level Toronto Center
08:48AM 43.9167 -79.4000 324° Northwest 210 242 2,900 960 Climbing Toronto Center
08:49AM 43.9333 -79.3167 74° East 250 288 3,300 1,200 Climbing Toronto Center
08:50AM 43.8667 -79.2667 152° Southeast 280 322 5,400 2,340 Climbing Toronto Center
08:51AM 43.7833 -79.2167 157° South 330 380 8,000 2,760 Climbing Toronto Center
08:52AM 43.8603 -79.3683 147° Southeast  Level FlightAware Approximate
08:52AM 43.6833 -79.1667 160° South 360 414 11,000  Level Toronto Center
08:53AM 43.6000 -79.0833 144° Southeast 370 426 14,200 2,820 Climbing Toronto Center
08:54AM 43.5500 -78.9667 121° Southeast 380 437 16,700 2,460 Climbing Toronto Center
08:55AM 43.5333 -78.8333 100° East 380 437 19,200 2,100 Climbing Toronto Center
08:56AM 43.5167 -78.6667 98° East 390 449 20,900 1,740 Climbing Toronto Center
08:56AM 43.5125 -78.6167 97° East 389 448 21,800 2,160 Climbing Cleveland Center
08:57AM 43.4933 -78.4628 100° East 407 468 24,100 2,040 Climbing Cleveland Center
08:58AM 43.4714 -78.3064 101° East 413 475 26,000 1,680 Climbing Cleveland Center
08:59AM 43.4475 -78.1442 101° East 418 481 27,500 1,560 Climbing Cleveland Center
09:00AM 43.4250 -77.9822 101° East 424 488 29,100 1,680 Climbing Cleveland Center
09:01AM 43.4006 -77.8175 101° East 429 494 30,900 900 Climbing Cleveland Center
09:02AM 43.3756 -77.6472 101° East 429 494 31,000  Climbing Cleveland Center
09:03AM 43.3522 -77.4742 100° East 446 513 31,000  Level Cleveland Center
09:04AM 43.3244 -77.2986 102° East 452 520 31,000  Level Cleveland Center
09:06AM 43.2667 -77.0000 105° East 480 552 31,000  Level Toronto Center
09:07AM 43.2500 -76.8167 97° East 470 541 31,000  Level Toronto Center
09:08AM 43.2167 -76.6333 104° East 470 541 31,000  Level Toronto Center
09:09AM 43.1833 -76.4833 107° East 460 529 31,000  Level Toronto Center
09:10AM 43.1667 -76.3000 97° East 450 518 31,000  Level Toronto Center
09:11AM 43.1500 -76.1333 98° East 460 529 31,000  Level Toronto Center
09:12AM 43.1000 -75.9500 110° East 460 529 31,000  Level Toronto Center
09:13AM 43.0833 -75.8000 99° East 450 518 31,000  Level Toronto Center
09:14AM 43.0667 -75.6333 98° East 450 518 31,000  Level Toronto Center
09:15AM 43.0333 -75.4833 107° East 440 506 31,000  Level Toronto Center
09:16AM 43.0000 -75.3000 104° East 450 518 31,000 -300 Level Toronto Center
09:17AM 42.9667 -75.1500 107° East 450 518 30,500 -720 Descending Toronto Center
09:18AM 42.9500 -74.9833 98° East 450 518 29,600 -780 Descending Toronto Center
09:19AM 42.9167 -74.8333 107° East 430 495 29,000 -300 Descending Toronto Center
09:20AM 42.9033 -74.6850 97° East 432 497 29,000  Level Boston Center
09:21AM 42.8753 -74.5253 103° East 432 497 29,000  Level Boston Center
09:22AM 42.8428 -74.3600 105° East 438 504 29,000 -60 Level Boston Center
09:23AM 42.8183 -74.1950 101° East 438 504 28,900 -540 Descending Boston Center
09:24AM 42.7853 -74.0328 105° East 438 504 28,000 -900 Descending Boston Center
09:25AM 42.7561 -73.8708 104° East 438 504 27,100 -900 Descending Boston Center
09:26AM 42.7500 -73.6842 92° East 438 504 26,200 -900 Descending Boston Center
09:27AM 42.7661 -73.5261 82° East 454 522 25,200 -1,080 Descending Boston Center
09:28AM 42.7722 -73.3028 88° East 460 529 23,900 -1,200 Descending Boston Center
09:29AM 42.7400 -73.1525 106° East 450 518 22,800 -960 Descending Boston Center
09:30AM 42.7078 -72.9628 103° East 457 526 22,000 -900 Descending Boston Center
09:31AM 42.6833 -72.8044 102° East 450 518 21,100 -1,320 Descending Boston Center
09:32AM 42.6525 -72.6461 105° East 439 505 19,400 -1,860 Descending Boston Center
09:34AM 42.6256 -72.4794 102° East 424 488 17,100 -2,280 Descending Boston Center
09:35AM 42.5919 -72.3131 105° East 409 471 14,500 -2,340 Descending Boston Center
09:36AM 42.5689 -72.1864 104° East 397 457 12,500 -1,860 Descending Boston Center
09:37AM 42.5414 -72.0286 103° East 387 445 10,800 -1,380 Descending Boston Center
09:38AM 42.5347 -71.9272 95° East 334 384 9,800 -1,500 Descending Boston Center
09:39AM 42.5258 -71.8428 98° East 296 341 7,900 -2,160 Descending Boston Center
09:40AM 42.5336 -71.7103 85° East 285 328 5,500 -2,100 Descending Boston Center
09:40AM 42.5500 -71.6167 77° East 265 305 4,100 -1,380 Descending KA90
09:41AM 42.5500 -71.5167 90° East 256 295 3,000 -540 Descending KA90
09:42AM 42.5667 -71.4167 77° East 253 291 3,100  Climbing KA90
09:43AM 42.5667 -71.3333 90° East 254 292 3,100 -540 Level KA90
09:44AM 42.5667 -71.2500 90° East 241 277 2,200 -540 Descending KA90
09:45AM 42.5667 -71.1667 90° East 210 242 2,100 -120 Descending KA90
09:46AM 42.5500 -71.1000 109° East 208 239 2,000  Descending KA90
09:47AM 42.5000 -71.0667 154° Southeast 205 236 2,100  Climbing KA90
09:48AM 42.4667 -71.1000 216° Southwest 183 211 2,100 -120 Level KA90
09:49AM 42.4667 -71.1667 270° West 179 206 1,900 -660 Descending KA90
09:50AM 42.4667 -71.2167 270° West 145 167 900 -1,080 Descending KA90
09:54AM 42.4667 -71.2833 264° West  Level FlightAware Approximate